createdAt,value
2022-08-17T00:00:42.790Z,21.16
2022-08-17T00:03:15.587Z,21.20
2022-08-17T00:05:48.739Z,21.19
2022-08-17T00:08:18.620Z,21.23
2022-08-17T00:10:47.469Z,21.21
2022-08-17T00:13:20.181Z,21.19
2022-08-17T00:15:48.817Z,21.15
2022-08-17T00:19:00.339Z,21.15
2022-08-17T00:21:10.444Z,21.15
2022-08-17T00:23:39.833Z,21.00
2022-08-17T00:26:16.107Z,21.00
2022-08-17T00:29:06.003Z,20.99
2022-08-17T00:31:35.614Z,21.03
2022-08-17T00:34:03.892Z,21.02
2022-08-17T00:36:31.827Z,21.05
2022-08-17T00:38:59.846Z,21.08
2022-08-17T00:41:29.588Z,21.02
2022-08-17T00:44:02.508Z,20.97
2022-08-17T00:46:33.572Z,20.93
2022-08-17T00:49:01.805Z,20.91
2022-08-17T00:51:33.874Z,20.85
2022-08-17T00:54:06.221Z,20.84
2022-08-17T00:56:36.644Z,20.88
2022-08-17T00:59:07.001Z,20.91
2022-08-17T01:01:36.424Z,20.84
2022-08-17T01:04:05.421Z,20.88
2022-08-17T01:06:34.457Z,20.86
2022-08-17T01:09:03.746Z,20.82
2022-08-17T01:11:32.757Z,20.78
2022-08-17T01:14:01.023Z,20.74
2022-08-17T01:16:31.288Z,20.71
2022-08-17T01:19:03.008Z,20.67
2022-08-17T01:21:34.800Z,20.69
2022-08-17T01:24:04.625Z,20.64
2022-08-17T01:26:34.346Z,20.56
2022-08-17T01:29:03.539Z,20.59
2022-08-17T01:31:35.273Z,20.58
2022-08-17T01:34:07.500Z,20.56
2022-08-17T01:36:35.848Z,20.55
2022-08-17T01:39:05.747Z,20.60
2022-08-17T01:41:33.715Z,20.61
2022-08-17T01:44:06.776Z,20.60
2022-08-17T01:46:37.042Z,20.54
2022-08-17T01:49:08.012Z,20.54
2022-08-17T01:51:36.355Z,20.54
2022-08-17T01:54:07.861Z,20.44
2022-08-17T01:56:38.788Z,20.37
2022-08-17T01:59:06.864Z,20.29
2022-08-17T02:01:37.187Z,20.25
2022-08-17T02:04:06.569Z,20.28
2022-08-17T02:06:42.750Z,20.31
2022-08-17T02:09:16.852Z,20.37
2022-08-17T02:11:46.429Z,20.34
2022-08-17T02:14:15.189Z,20.34
2022-08-17T02:16:43.559Z,20.34
2022-08-17T02:19:15.845Z,20.35
2022-08-17T02:21:46.985Z,20.42
2022-08-17T02:24:18.469Z,20.42
2022-08-17T02:27:07.011Z,20.42
2022-08-17T02:29:35.329Z,20.33
2022-08-17T02:32:03.305Z,20.30
2022-08-17T02:34:32.387Z,20.26
2022-08-17T02:37:00.285Z,20.26
2022-08-17T02:39:30.078Z,20.21
2022-08-17T02:42:02.079Z,20.16
2022-08-17T02:44:35.491Z,20.15
2022-08-17T02:47:09.165Z,20.09
2022-08-17T02:49:37.532Z,20.07
2022-08-17T02:52:07.225Z,20.09
2022-08-17T02:54:41.274Z,20.08
2022-08-17T02:57:10.429Z,20.04
2022-08-17T02:59:38.334Z,19.98
2022-08-17T03:02:07.343Z,19.84
2022-08-17T03:04:35.636Z,19.90
2022-08-17T03:07:04.212Z,19.83
2022-08-17T03:09:32.442Z,19.85
2022-08-17T03:12:07.534Z,19.86
2022-08-17T03:14:41.294Z,19.84
2022-08-17T03:17:12.762Z,19.84
2022-08-17T03:19:45.527Z,19.83
2022-08-17T03:22:36.568Z,19.78
2022-08-17T03:25:01.573Z,19.66
2022-08-17T03:27:31.441Z,19.58
2022-08-17T03:29:59.624Z,19.48
2022-08-17T03:32:27.685Z,19.37
2022-08-17T03:35:00.282Z,19.36
2022-08-17T03:37:28.480Z,19.29
2022-08-17T03:39:56.699Z,19.27
2022-08-17T03:42:32.314Z,19.35
2022-08-17T03:45:03.499Z,19.41
2022-08-17T03:47:49.060Z,19.47
2022-08-17T03:50:34.357Z,19.51
2022-08-17T03:53:22.885Z,19.53
2022-08-17T03:56:08.187Z,19.53
2022-08-17T03:58:37.470Z,19.56
2022-08-17T04:01:07.765Z,19.55
2022-08-17T04:03:35.648Z,19.54
2022-08-17T04:06:03.461Z,19.57
2022-08-17T04:08:31.646Z,19.56
2022-08-17T04:11:00.401Z,19.55
2022-08-17T04:13:28.613Z,19.56
2022-08-17T04:15:57.325Z,19.58
2022-08-17T04:18:27.405Z,19.57
2022-08-17T04:20:55.668Z,19.51
2022-08-17T04:23:28.407Z,19.36
2022-08-17T04:25:56.509Z,19.24
2022-08-17T04:28:24.666Z,19.09
2022-08-17T04:30:52.565Z,18.90
2022-08-17T04:33:22.541Z,18.77
2022-08-17T04:35:54.039Z,18.76
2022-08-17T04:38:27.038Z,18.61
2022-08-17T04:41:13.193Z,18.55
2022-08-17T04:43:43.860Z,18.47
2022-08-17T04:46:22.225Z,18.50
2022-08-17T04:48:52.385Z,18.55
2022-08-17T04:51:24.206Z,18.60
2022-08-17T04:53:55.021Z,18.68
2022-08-17T04:56:25.168Z,18.77
2022-08-17T04:58:54.687Z,18.85
2022-08-17T05:01:24.568Z,18.93
2022-08-17T05:03:53.727Z,18.87
2022-08-17T05:06:23.856Z,18.85
2022-08-17T05:08:52.012Z,18.94
2022-08-17T05:11:19.973Z,19.04
2022-08-17T05:13:50.280Z,19.12
2022-08-17T05:16:19.187Z,19.18
2022-08-17T05:18:47.588Z,19.17
2022-08-17T05:21:16.134Z,19.16
2022-08-17T05:23:53.234Z,19.15
2022-08-17T05:26:26.730Z,19.14
2022-08-17T05:28:57.139Z,19.15
2022-08-17T05:31:27.876Z,19.20
2022-08-17T05:33:56.017Z,19.22
2022-08-17T05:36:42.079Z,19.28
2022-08-17T05:39:16.439Z,19.35
2022-08-17T05:41:46.856Z,19.47
2022-08-17T05:44:15.165Z,19.57
2022-08-17T05:46:45.537Z,19.68
2022-08-17T05:49:14.296Z,19.58
2022-08-17T05:52:09.176Z,19.57
2022-08-17T05:54:49.236Z,19.57
2022-08-17T05:57:32.744Z,19.59
2022-08-17T06:00:07.398Z,19.61
2022-08-17T06:02:52.999Z,19.63
2022-08-17T06:05:34.621Z,19.70
2022-08-17T06:08:09.950Z,19.79
2022-08-17T06:10:43.626Z,19.88
2022-08-17T06:13:18.886Z,20.00
2022-08-17T06:15:56.696Z,20.10
2022-08-17T06:18:27.773Z,20.19
2022-08-17T06:21:03.142Z,20.30
2022-08-17T06:23:35.189Z,20.35
2022-08-17T06:26:10.281Z,20.44
2022-08-17T06:28:40.601Z,20.53
2022-08-17T06:31:13.127Z,20.59
2022-08-17T06:33:46.059Z,20.67
2022-08-17T06:36:28.089Z,20.76
2022-08-17T06:39:05.300Z,20.87
2022-08-17T06:41:41.880Z,20.97
2022-08-17T06:44:43.312Z,21.03
2022-08-17T06:47:27.953Z,21.13
2022-08-17T06:50:07.196Z,21.18
2022-08-17T06:52:47.811Z,21.25
2022-08-17T06:55:18.721Z,21.34
2022-08-17T06:57:51.542Z,21.45
2022-08-17T07:00:23.195Z,21.53
2022-08-17T07:05:24.453Z,21.83
2022-08-17T07:08:03.172Z,21.98
2022-08-17T07:10:37.218Z,22.10
2022-08-17T07:13:18.169Z,22.22
2022-08-17T07:15:46.518Z,22.33
2022-08-17T07:18:14.687Z,22.47
2022-08-17T07:20:45.935Z,22.65
2022-08-17T07:23:21.232Z,22.90
2022-08-17T07:25:49.424Z,23.11
2022-08-17T07:28:23.780Z,23.33
2022-08-17T07:30:54.309Z,23.55
2022-08-17T07:33:25.867Z,23.71
2022-08-17T07:35:54.385Z,23.92
2022-08-17T07:38:26.926Z,24.15
2022-08-17T07:41:06.284Z,24.20
2022-08-17T07:43:37.399Z,24.34
2022-08-17T07:46:35.213Z,24.59
2022-08-17T07:49:23.447Z,24.82
2022-08-17T07:52:24.100Z,25.14
2022-08-17T07:54:49.364Z,25.35
2022-08-17T07:57:41.810Z,25.60
2022-08-17T08:00:31.982Z,25.84
2022-08-17T08:03:04.654Z,25.95
2022-08-17T08:05:50.540Z,26.11
2022-08-17T08:08:31.359Z,26.26
2022-08-17T08:11:07.179Z,26.34
2022-08-17T08:13:40.496Z,26.32
2022-08-17T08:16:24.480Z,26.21
2022-08-17T08:18:57.418Z,26.16
2022-08-17T08:21:33.214Z,26.15
2022-08-17T08:24:13.758Z,26.08
2022-08-17T08:26:46.466Z,26.04
2022-08-17T08:29:23.112Z,25.94
2022-08-17T08:32:01.848Z,25.79
2022-08-17T08:34:45.442Z,25.74
2022-08-17T08:37:35.542Z,25.80
2022-08-17T08:40:13.296Z,25.66
2022-08-17T08:42:49.769Z,25.67
2022-08-17T08:45:23.591Z,25.64
2022-08-17T08:48:05.518Z,25.62
2022-08-17T08:50:42.998Z,25.61
2022-08-17T08:53:30.802Z,25.62
2022-08-17T08:56:03.365Z,25.65
2022-08-17T08:58:41.267Z,25.61
2022-08-17T09:01:17.813Z,25.58
2022-08-17T09:04:23.440Z,25.55
2022-08-17T09:07:02.238Z,25.61
2022-08-17T09:09:38.495Z,25.61
2022-08-17T09:12:14.018Z,25.60
2022-08-17T09:14:46.926Z,25.53
2022-08-17T09:17:18.547Z,25.60
2022-08-17T09:19:51.058Z,25.48
2022-08-17T09:22:31.509Z,25.41
2022-08-17T09:25:06.900Z,25.47
2022-08-17T09:27:38.345Z,25.47
2022-08-17T09:30:11.986Z,25.48
2022-08-17T09:32:42.579Z,25.39
2022-08-17T09:35:17.667Z,25.39
2022-08-17T09:37:57.644Z,25.48
2022-08-17T09:40:28.979Z,25.45
2022-08-17T09:43:02.856Z,25.37
2022-08-17T09:45:34.049Z,25.33
2022-08-17T09:48:07.333Z,25.30
2022-08-17T09:51:05.013Z,25.34
2022-08-17T09:53:32.026Z,25.40
2022-08-17T09:56:30.389Z,25.37
2022-08-17T09:59:11.385Z,25.41
2022-08-17T10:01:43.330Z,25.47
2022-08-17T10:04:33.720Z,25.57
2022-08-17T10:07:08.733Z,25.51
2022-08-17T10:09:44.566Z,25.51
2022-08-17T10:12:21.487Z,25.58
2022-08-17T10:15:07.993Z,25.54
2022-08-17T10:17:44.019Z,25.62
2022-08-17T10:20:15.363Z,25.69
2022-08-17T10:23:07.548Z,25.69
2022-08-17T10:26:09.250Z,25.82
2022-08-17T10:28:40.690Z,25.76
2022-08-17T10:31:33.667Z,25.80
2022-08-17T10:34:10.417Z,25.83
2022-08-17T10:36:46.167Z,25.80
2022-08-17T10:39:24.654Z,25.87
2022-08-17T10:41:56.914Z,25.94
2022-08-17T10:44:37.995Z,26.00
2022-08-17T10:47:11.818Z,25.99
2022-08-17T10:49:47.556Z,26.15
2022-08-17T10:52:48.662Z,26.12
2022-08-17T10:55:20.526Z,26.08
2022-08-17T10:57:51.005Z,26.01
2022-08-17T11:01:12.650Z,25.94
2022-08-17T11:03:54.904Z,25.97
2022-08-17T11:06:27.364Z,26.09
2022-08-17T11:09:29.017Z,26.05
2022-08-17T11:12:19.943Z,26.13
2022-08-17T11:15:00.461Z,26.10
2022-08-17T11:17:57.554Z,26.06
2022-08-17T11:20:51.075Z,25.99
2022-08-17T11:23:41.234Z,25.96
2022-08-17T11:26:26.338Z,26.00
2022-08-17T11:28:59.565Z,26.12
2022-08-17T11:31:38.443Z,25.96
2022-08-17T11:34:14.607Z,25.92
2022-08-17T11:36:58.029Z,25.94
2022-08-17T11:39:37.906Z,26.04
2022-08-17T11:42:13.090Z,25.96
2022-08-17T11:44:51.896Z,26.02
2022-08-17T11:48:02.482Z,26.00
2022-08-17T11:51:06.400Z,25.83
2022-08-17T11:57:00.962Z,25.57
2022-08-17T11:59:57.711Z,25.46
2022-08-17T12:02:35.030Z,25.58
2022-08-17T12:05:27.568Z,25.53
2022-08-17T12:08:18.723Z,25.52
2022-08-17T12:11:01.149Z,25.45
2022-08-17T12:13:38.777Z,25.46
2022-08-17T12:16:10.401Z,25.67
2022-08-17T12:18:39.924Z,25.65
2022-08-17T12:21:27.758Z,25.90
2022-08-17T12:24:03.330Z,26.19
2022-08-17T12:26:33.990Z,26.20
2022-08-17T12:29:04.254Z,26.19
2022-08-17T12:31:37.004Z,26.32
2022-08-17T12:34:05.863Z,26.36
2022-08-17T12:36:34.657Z,26.25
2022-08-17T12:39:13.985Z,26.26
2022-08-17T12:41:51.943Z,26.33
2022-08-17T12:44:21.735Z,26.36
2022-08-17T12:46:54.930Z,26.49
2022-08-17T12:49:29.647Z,26.50
2022-08-17T12:52:09.111Z,26.62
2022-08-17T12:54:47.298Z,26.70
2022-08-17T12:57:17.496Z,26.67
2022-08-17T12:59:48.942Z,26.78
2022-08-17T13:02:27.678Z,26.90
2022-08-17T13:04:57.298Z,26.98
2022-08-17T13:07:37.676Z,27.15
2022-08-17T13:10:06.858Z,27.37
2022-08-17T13:12:36.927Z,27.58
2022-08-17T13:15:05.756Z,27.57
2022-08-17T13:17:37.448Z,27.66
2022-08-17T13:20:07.624Z,27.74
2022-08-17T13:22:35.645Z,27.78
2022-08-17T13:25:08.587Z,27.84
2022-08-17T13:27:36.701Z,27.67
2022-08-17T13:30:11.289Z,27.73
2022-08-17T13:32:45.149Z,27.75
2022-08-17T13:35:44.151Z,27.90
2022-08-17T13:38:17.482Z,27.97
2022-08-17T13:40:53.467Z,28.15
2022-08-17T13:43:40.553Z,28.37
2022-08-17T13:46:10.872Z,28.72
2022-08-17T13:48:40.626Z,29.13
2022-08-17T13:51:30.394Z,29.38
2022-08-17T13:54:02.173Z,29.68
2022-08-17T13:56:38.668Z,30.00
2022-08-17T13:59:10.134Z,30.05
2022-08-17T14:01:40.751Z,29.83
2022-08-17T14:04:12.523Z,29.53
2022-08-17T14:06:52.990Z,29.64
2022-08-17T14:09:23.318Z,29.86
2022-08-17T14:11:52.223Z,29.92
2022-08-17T14:14:20.395Z,30.02
2022-08-17T14:16:48.852Z,30.11
2022-08-17T14:19:18.244Z,30.11
2022-08-17T14:21:48.180Z,30.03
2022-08-17T14:24:26.203Z,30.19
2022-08-17T14:26:56.064Z,30.13
2022-08-17T14:29:29.720Z,30.15
2022-08-17T14:31:58.490Z,30.16
2022-08-17T14:34:28.496Z,30.15
2022-08-17T14:36:58.511Z,30.31
2022-08-17T14:39:33.624Z,30.48
2022-08-17T14:42:02.094Z,30.51
2022-08-17T14:44:30.266Z,30.44
2022-08-17T14:46:58.106Z,30.33
2022-08-17T14:49:28.202Z,30.31
2022-08-17T14:51:56.085Z,30.34
2022-08-17T14:54:29.384Z,30.38
2022-08-17T14:57:23.468Z,30.42
2022-08-17T14:59:54.832Z,30.27
2022-08-17T15:02:29.298Z,30.27
2022-08-17T15:05:01.833Z,30.17
2022-08-17T15:07:30.923Z,30.07
2022-08-17T15:10:01.332Z,30.16
2022-08-17T15:12:34.073Z,30.25
2022-08-17T15:15:03.203Z,30.16
2022-08-17T15:17:44.191Z,30.01
2022-08-17T15:20:18.276Z,29.94
2022-08-17T15:22:50.022Z,29.86
2022-08-17T15:25:20.019Z,29.88
2022-08-17T15:27:48.323Z,29.89
2022-08-17T15:30:16.391Z,29.84
2022-08-17T15:32:50.773Z,29.83
2022-08-17T15:35:26.977Z,29.89
2022-08-17T15:37:55.885Z,29.90
2022-08-17T15:40:25.122Z,29.87
2022-08-17T15:42:54.156Z,29.88
2022-08-17T15:45:24.874Z,29.97
2022-08-17T15:47:53.388Z,29.97
2022-08-17T15:50:23.062Z,29.89
2022-08-17T15:52:57.061Z,29.85
2022-08-17T15:55:26.987Z,29.83
2022-08-17T15:57:55.325Z,29.76
2022-08-17T16:00:24.241Z,29.79
2022-08-17T16:03:45.352Z,29.61
2022-08-17T16:05:43.190Z,29.56
2022-08-17T16:08:11.683Z,29.37
2022-08-17T16:10:41.480Z,29.34
2022-08-17T16:13:17.148Z,29.29
2022-08-17T16:15:53.003Z,29.23
2022-08-17T16:18:28.291Z,29.26
2022-08-17T16:20:58.032Z,29.16
2022-08-17T16:23:26.106Z,29.08
2022-08-17T16:25:57.248Z,29.02
2022-08-17T16:28:30.855Z,28.89
2022-08-17T16:31:04.184Z,28.81
2022-08-17T16:33:32.651Z,28.70
2022-08-17T16:36:02.254Z,28.71
2022-08-17T16:38:30.314Z,28.60
2022-08-17T16:40:58.239Z,28.54
2022-08-17T16:43:26.464Z,28.41
2022-08-17T16:45:54.879Z,28.33
2022-08-17T16:48:23.339Z,28.25
2022-08-17T16:51:03.150Z,28.16
2022-08-17T16:53:33.962Z,28.19
2022-08-17T16:56:01.929Z,28.10
2022-08-17T16:58:30.219Z,27.99
2022-08-17T17:00:59.806Z,28.05
2022-08-17T17:03:29.143Z,27.96
2022-08-17T17:06:07.292Z,27.86
2022-08-17T17:08:44.083Z,27.84
2022-08-17T17:11:15.198Z,27.77
2022-08-17T17:13:47.066Z,27.64
2022-08-17T17:16:20.838Z,27.59
2022-08-17T17:19:15.757Z,27.46
2022-08-17T17:21:52.996Z,27.40
2022-08-17T17:24:30.037Z,27.24
2022-08-17T17:27:16.132Z,27.25
2022-08-17T17:30:05.172Z,27.22
2022-08-17T17:32:38.671Z,27.09
2022-08-17T17:35:11.526Z,27.10
2022-08-17T17:37:41.492Z,26.99
2022-08-17T17:40:17.603Z,26.93
2022-08-17T17:42:46.790Z,26.94
2022-08-17T17:45:20.144Z,26.87
2022-08-17T17:47:48.454Z,26.80
2022-08-17T17:50:18.741Z,26.74
2022-08-17T17:52:49.767Z,26.71
2022-08-17T17:55:32.879Z,26.64
2022-08-17T17:58:09.794Z,26.53
2022-08-17T18:00:40.666Z,26.48
2022-08-17T18:03:15.195Z,26.39
2022-08-17T18:05:55.052Z,26.41
2022-08-17T18:08:35.298Z,26.33
2022-08-17T18:11:14.807Z,26.27
2022-08-17T18:14:03.661Z,26.22
2022-08-17T18:16:33.534Z,26.18
2022-08-17T18:19:02.240Z,26.13
2022-08-17T18:21:37.891Z,26.05
2022-08-17T18:24:10.606Z,25.98
2022-08-17T18:26:45.006Z,25.94
2022-08-17T18:29:21.497Z,25.84
2022-08-17T18:31:53.818Z,25.72
2022-08-17T18:37:16.015Z,25.53
2022-08-17T18:39:47.723Z,25.41
2022-08-17T18:42:27.254Z,25.36
2022-08-17T18:44:56.159Z,25.34
2022-08-17T18:47:25.888Z,25.27
2022-08-17T18:49:57.828Z,25.18
2022-08-17T18:52:28.837Z,25.16
2022-08-17T18:55:08.759Z,25.13
2022-08-17T18:57:41.823Z,25.10
2022-08-17T19:00:16.646Z,25.07
2022-08-17T19:02:51.824Z,24.99
2022-08-17T19:05:34.409Z,24.90
2022-08-17T19:08:22.765Z,24.88
2022-08-17T19:10:53.157Z,24.88
2022-08-17T19:13:26.735Z,24.86
2022-08-17T19:16:11.841Z,24.87
2022-08-17T19:18:46.034Z,24.83
2022-08-17T19:21:17.234Z,24.77
2022-08-17T19:23:53.778Z,24.73
2022-08-17T19:26:54.074Z,24.72
2022-08-17T19:29:22.349Z,24.68
2022-08-17T19:31:51.029Z,24.62
2022-08-17T19:34:33.315Z,24.60
2022-08-17T19:37:09.742Z,24.59
2022-08-17T19:39:42.618Z,24.60
2022-08-17T19:42:15.407Z,24.52
2022-08-17T19:44:54.563Z,24.44
2022-08-17T19:47:51.017Z,24.41
2022-08-17T19:50:18.867Z,24.37
2022-08-17T19:52:50.835Z,24.35
2022-08-17T19:55:24.392Z,24.33
2022-08-17T19:58:08.213Z,24.29
2022-08-17T20:00:40.513Z,24.27
2022-08-17T20:03:16.386Z,24.30
2022-08-17T20:06:11.527Z,24.29
2022-08-17T20:08:40.114Z,24.23
2022-08-17T20:11:10.974Z,24.25
2022-08-17T20:13:43.599Z,24.18
2022-08-17T20:16:13.401Z,24.12
2022-08-17T20:18:48.218Z,24.12
2022-08-17T20:21:20.809Z,24.13
2022-08-17T20:23:54.278Z,24.09
2022-08-17T20:26:26.376Z,24.05
2022-08-17T20:29:10.352Z,24.01
2022-08-17T20:31:46.226Z,23.98
2022-08-17T20:34:37.046Z,23.93
2022-08-17T20:37:08.920Z,23.91
2022-08-17T20:39:40.711Z,23.84
2022-08-17T20:42:28.499Z,23.67
2022-08-17T20:44:59.212Z,23.65
2022-08-17T20:47:30.666Z,23.56
2022-08-17T20:50:03.094Z,23.47
2022-08-17T20:52:50.834Z,23.40
2022-08-17T20:55:53.201Z,23.34
2022-08-17T20:58:47.647Z,23.30
2022-08-17T21:01:20.401Z,23.28
2022-08-17T21:03:52.339Z,23.31
2022-08-17T21:06:23.262Z,23.31
2022-08-17T21:08:54.438Z,23.22
2022-08-17T21:12:02.613Z,23.17
2022-08-17T21:14:44.721Z,23.18
2022-08-17T21:17:33.277Z,23.19
2022-08-17T21:20:12.343Z,23.08
2022-08-17T21:22:50.581Z,23.03
2022-08-17T21:25:32.800Z,22.88
2022-08-17T21:28:08.244Z,22.90
2022-08-17T21:30:48.138Z,22.94
2022-08-17T21:33:23.177Z,22.80
2022-08-17T21:35:58.730Z,22.85
2022-08-17T21:38:35.898Z,22.85
2022-08-17T21:41:04.230Z,22.88
2022-08-17T21:43:33.489Z,22.90
2022-08-17T21:46:05.649Z,22.93
2022-08-17T21:48:42.712Z,22.95
2022-08-17T21:51:14.535Z,22.95
2022-08-17T21:53:46.403Z,22.96
2022-08-17T21:56:23.392Z,22.99
2022-08-17T21:58:56.243Z,22.93
2022-08-17T22:01:27.860Z,22.95
2022-08-17T22:03:59.565Z,22.87
2022-08-17T22:06:31.296Z,22.83
2022-08-17T22:09:02.454Z,22.83
2022-08-17T22:11:31.490Z,22.83
2022-08-17T22:14:05.968Z,22.80
2022-08-17T22:16:35.201Z,22.76
2022-08-17T22:19:03.481Z,22.70
2022-08-17T22:21:33.922Z,22.74
2022-08-17T22:24:04.165Z,22.67
2022-08-17T22:27:08.313Z,22.65
2022-08-17T22:29:53.206Z,22.68
2022-08-17T22:32:38.206Z,22.71
2022-08-17T22:35:39.959Z,22.78
2022-08-17T22:38:34.116Z,22.80
2022-08-17T22:41:32.077Z,22.69
2022-08-17T22:44:02.449Z,22.72
2022-08-17T22:46:30.810Z,22.66
2022-08-17T22:49:01.087Z,22.60
2022-08-17T22:51:31.097Z,22.50
2022-08-17T22:54:19.903Z,22.43
2022-08-17T22:57:07.318Z,22.27
2022-08-17T22:59:49.056Z,22.19
2022-08-17T23:02:23.788Z,22.18
2022-08-17T23:04:54.281Z,22.14
2022-08-17T23:07:22.795Z,22.11
2022-08-17T23:09:53.812Z,22.10
2022-08-17T23:12:26.489Z,22.13
2022-08-17T23:15:00.617Z,22.11
2022-08-17T23:17:35.086Z,22.10
2022-08-17T23:20:06.558Z,22.02
2022-08-17T23:22:34.541Z,21.93
2022-08-17T23:25:07.274Z,21.76
2022-08-17T23:27:35.497Z,21.69
2022-08-17T23:30:05.971Z,21.60
2022-08-17T23:32:53.201Z,21.57
2022-08-17T23:35:38.933Z,21.50
2022-08-17T23:38:10.041Z,21.40
2022-08-17T23:40:40.300Z,21.29
2022-08-17T23:43:24.021Z,21.22
2022-08-17T23:45:53.583Z,21.16
2022-08-17T23:48:34.921Z,21.08
2022-08-17T23:51:08.783Z,21.03
2022-08-17T23:53:37.593Z,21.00
2022-08-17T23:56:11.295Z,20.99
2022-08-17T23:58:40.374Z,20.92
